sensor_id;sensor_type;location;lat;lon;timestamp;temperature;humidity
45837;DHT22;31548;51.420;-0.040;2023-12-29T00:00:16;10.40;99.90
45837;DHT22;31548;51.420;-0.040;2023-12-29T00:02:43;10.40;99.90
45837;DHT22;31548;51.420;-0.040;2023-12-29T00:05:11;10.40;99.90
45837;DHT22;31548;51.420;-0.040;2023-12-29T00:07:39;10.50;99.90
45837;DHT22;31548;51.420;-0.040;2023-12-29T00:10:06;10.50;99.90
45837;DHT22;31548;51.420;-0.040;2023-12-29T00:12:34;10.50;99.90
45837;DHT22;31548;51.420;-0.040;2023-12-29T00:15:02;10.40;99.90
45837;DHT22;31548;51.420;-0.040;2023-12-29T00:17:30;10.50;99.90
45837;DHT22;31548;51.420;-0.040;2023-12-29T00:19:58;10.40;99.90
45837;DHT22;31548;51.420;-0.040;2023-12-29T00:22:25;10.50;99.90
45837;DHT22;31548;51.420;-0.040;2023-12-29T00:24:54;10.50;99.90
45837;DHT22;31548;51.420;-0.040;2023-12-29T00:27:22;10.40;99.90
45837;DHT22;31548;51.420;-0.040;2023-12-29T00:29:49;10.40;99.90
45837;DHT22;31548;51.420;-0.040;2023-12-29T00:32:17;10.40;99.90
45837;DHT22;31548;51.420;-0.040;2023-12-29T00:34:44;10.50;99.90
45837;DHT22;31548;51.420;-0.040;2023-12-29T00:37:12;10.50;99.90
45837;DHT22;31548;51.420;-0.040;2023-12-29T00:39:39;10.40;99.90
45837;DHT22;31548;51.420;-0.040;2023-12-29T00:42:07;10.40;99.90
45837;DHT22;31548;51.420;-0.040;2023-12-29T00:44:35;10.40;99.90
45837;DHT22;31548;51.420;-0.040;2023-12-29T00:47:02;10.40;99.90
45837;DHT22;31548;51.420;-0.040;2023-12-29T00:49:30;10.30;99.90
45837;DHT22;31548;51.420;-0.040;2023-12-29T00:51:58;10.30;99.90
45837;DHT22;31548;51.420;-0.040;2023-12-29T00:54:25;10.20;99.90
45837;DHT22;31548;51.420;-0.040;2023-12-29T00:56:56;10.20;99.90
45837;DHT22;31548;51.420;-0.040;2023-12-29T00:59:24;10.30;99.90
45837;DHT22;31548;51.420;-0.040;2023-12-29T01:01:51;10.30;99.90
45837;DHT22;31548;51.420;-0.040;2023-12-29T01:04:19;10.20;99.90
45837;DHT22;31548;51.420;-0.040;2023-12-29T01:06:48;10.20;99.90
45837;DHT22;31548;51.420;-0.040;2023-12-29T01:09:15;10.20;99.90
45837;DHT22;31548;51.420;-0.040;2023-12-29T01:11:43;10.20;99.90
45837;DHT22;31548;51.420;-0.040;2023-12-29T01:14:10;10.20;99.90
45837;DHT22;31548;51.420;-0.040;2023-12-29T01:16:38;10.20;99.90
45837;DHT22;31548;51.420;-0.040;2023-12-29T01:19:05;10.20;99.90
45837;DHT22;31548;51.420;-0.040;2023-12-29T01:21:33;10.30;99.90
45837;DHT22;31548;51.420;-0.040;2023-12-29T01:24:02;10.30;99.90
45837;DHT22;31548;51.420;-0.040;2023-12-29T01:26:31;10.30;99.90
45837;DHT22;31548;51.420;-0.040;2023-12-29T01:28:59;10.30;99.90
45837;DHT22;31548;51.420;-0.040;2023-12-29T01:31:29;10.20;99.90
45837;DHT22;31548;51.420;-0.040;2023-12-29T01:33:58;10.20;99.90
45837;DHT22;31548;51.420;-0.040;2023-12-29T01:36:26;10.30;99.90
45837;DHT22;31548;51.420;-0.040;2023-12-29T01:38:55;10.20;99.90
45837;DHT22;31548;51.420;-0.040;2023-12-29T01:41:22;10.30;99.90
45837;DHT22;31548;51.420;-0.040;2023-12-29T01:46:25;10.30;99.90
45837;DHT22;31548;51.420;-0.040;2023-12-29T01:48:53;10.30;99.90
45837;DHT22;31548;51.420;-0.040;2023-12-29T01:51:24;10.30;99.90
45837;DHT22;31548;51.420;-0.040;2023-12-29T01:53:52;10.40;99.90
45837;DHT22;31548;51.420;-0.040;2023-12-29T01:56:21;10.40;99.90
45837;DHT22;31548;51.420;-0.040;2023-12-29T01:58:49;10.40;99.90
45837;DHT22;31548;51.420;-0.040;2023-12-29T02:01:18;10.40;99.90
45837;DHT22;31548;51.420;-0.040;2023-12-29T02:03:46;10.40;99.90
45837;DHT22;31548;51.420;-0.040;2023-12-29T02:06:16;10.30;99.90
45837;DHT22;31548;51.420;-0.040;2023-12-29T02:08:45;10.30;99.90
45837;DHT22;31548;51.420;-0.040;2023-12-29T02:11:13;10.30;99.90
45837;DHT22;31548;51.420;-0.040;2023-12-29T02:13:41;10.30;99.90
45837;DHT22;31548;51.420;-0.040;2023-12-29T02:16:25;10.30;99.90
45837;DHT22;31548;51.420;-0.040;2023-12-29T02:18:57;10.30;99.90
45837;DHT22;31548;51.420;-0.040;2023-12-29T02:21:26;10.40;99.90
45837;DHT22;31548;51.420;-0.040;2023-12-29T02:23:53;10.40;99.90
45837;DHT22;31548;51.420;-0.040;2023-12-29T02:26:25;10.40;99.90
45837;DHT22;31548;51.420;-0.040;2023-12-29T02:29:01;10.40;99.90
45837;DHT22;31548;51.420;-0.040;2023-12-29T02:31:30;10.40;99.90
45837;DHT22;31548;51.420;-0.040;2023-12-29T02:34:00;10.40;99.90
45837;DHT22;31548;51.420;-0.040;2023-12-29T02:36:30;10.50;99.90
45837;DHT22;31548;51.420;-0.040;2023-12-29T02:38:58;10.40;99.90
45837;DHT22;31548;51.420;-0.040;2023-12-29T02:41:26;10.40;99.90
45837;DHT22;31548;51.420;-0.040;2023-12-29T02:43:54;10.50;99.90
45837;DHT22;31548;51.420;-0.040;2023-12-29T02:46:21;10.50;99.90
45837;DHT22;31548;51.420;-0.040;2023-12-29T02:48:51;10.40;99.90
45837;DHT22;31548;51.420;-0.040;2023-12-29T02:51:18;10.40;99.90
45837;DHT22;31548;51.420;-0.040;2023-12-29T02:53:46;10.40;99.90
45837;DHT22;31548;51.420;-0.040;2023-12-29T02:56:15;10.40;99.90
45837;DHT22;31548;51.420;-0.040;2023-12-29T02:58:42;10.40;99.90
45837;DHT22;31548;51.420;-0.040;2023-12-29T03:01:10;10.40;99.90
45837;DHT22;31548;51.420;-0.040;2023-12-29T03:03:38;10.40;99.90
45837;DHT22;31548;51.420;-0.040;2023-12-29T03:06:07;10.40;99.90
45837;DHT22;31548;51.420;-0.040;2023-12-29T03:08:34;10.40;99.90
45837;DHT22;31548;51.420;-0.040;2023-12-29T03:11:02;10.40;99.90
45837;DHT22;31548;51.420;-0.040;2023-12-29T03:13:29;10.40;99.90
45837;DHT22;31548;51.420;-0.040;2023-12-29T03:15:57;10.30;99.90
45837;DHT22;31548;51.420;-0.040;2023-12-29T03:18:24;10.30;99.90
45837;DHT22;31548;51.420;-0.040;2023-12-29T03:20:52;10.30;99.90
45837;DHT22;31548;51.420;-0.040;2023-12-29T03:23:19;10.30;99.90
45837;DHT22;31548;51.420;-0.040;2023-12-29T03:25:47;10.30;99.90
45837;DHT22;31548;51.420;-0.040;2023-12-29T03:28:14;10.30;99.90
45837;DHT22;31548;51.420;-0.040;2023-12-29T03:30:43;10.40;99.90
45837;DHT22;31548;51.420;-0.040;2023-12-29T03:33:11;10.40;99.90
45837;DHT22;31548;51.420;-0.040;2023-12-29T03:35:38;10.40;99.90
45837;DHT22;31548;51.420;-0.040;2023-12-29T03:38:07;10.40;99.90
45837;DHT22;31548;51.420;-0.040;2023-12-29T03:40:34;10.40;99.90
45837;DHT22;31548;51.420;-0.040;2023-12-29T03:43:01;10.40;99.90
45837;DHT22;31548;51.420;-0.040;2023-12-29T03:45:29;10.40;99.90
45837;DHT22;31548;51.420;-0.040;2023-12-29T03:47:56;10.50;99.90
45837;DHT22;31548;51.420;-0.040;2023-12-29T03:50:24;10.50;99.90
45837;DHT22;31548;51.420;-0.040;2023-12-29T03:52:52;10.50;99.90
45837;DHT22;31548;51.420;-0.040;2023-12-29T03:55:20;10.60;99.90
45837;DHT22;31548;51.420;-0.040;2023-12-29T03:57:47;10.60;99.90
45837;DHT22;31548;51.420;-0.040;2023-12-29T04:00:16;10.60;99.90
45837;DHT22;31548;51.420;-0.040;2023-12-29T04:02:44;10.60;99.90
45837;DHT22;31548;51.420;-0.040;2023-12-29T04:05:11;10.60;99.90
45837;DHT22;31548;51.420;-0.040;2023-12-29T04:07:39;10.60;99.90
45837;DHT22;31548;51.420;-0.040;2023-12-29T04:10:08;10.70;99.90
45837;DHT22;31548;51.420;-0.040;2023-12-29T04:12:36;10.70;99.90
45837;DHT22;31548;51.420;-0.040;2023-12-29T04:15:04;10.70;99.90
45837;DHT22;31548;51.420;-0.040;2023-12-29T04:17:32;10.70;99.90
45837;DHT22;31548;51.420;-0.040;2023-12-29T04:20:00;10.70;99.90
45837;DHT22;31548;51.420;-0.040;2023-12-29T04:22:27;10.80;99.90
45837;DHT22;31548;51.420;-0.040;2023-12-29T04:24:55;10.70;99.90
45837;DHT22;31548;51.420;-0.040;2023-12-29T04:27:22;10.80;99.90
45837;DHT22;31548;51.420;-0.040;2023-12-29T04:29:50;10.80;99.90
45837;DHT22;31548;51.420;-0.040;2023-12-29T04:32:17;10.80;99.90
45837;DHT22;31548;51.420;-0.040;2023-12-29T04:34:44;10.80;99.90
45837;DHT22;31548;51.420;-0.040;2023-12-29T04:37:12;10.80;99.90
45837;DHT22;31548;51.420;-0.040;2023-12-29T04:39:40;10.90;99.90
45837;DHT22;31548;51.420;-0.040;2023-12-29T04:42:07;10.90;99.90
45837;DHT22;31548;51.420;-0.040;2023-12-29T04:44:34;10.90;99.90
45837;DHT22;31548;51.420;-0.040;2023-12-29T04:47:02;10.90;99.90
45837;DHT22;31548;51.420;-0.040;2023-12-29T04:49:29;10.90;99.90
45837;DHT22;31548;51.420;-0.040;2023-12-29T04:51:57;10.90;99.90
45837;DHT22;31548;51.420;-0.040;2023-12-29T04:54:24;10.90;99.90
45837;DHT22;31548;51.420;-0.040;2023-12-29T04:56:52;10.90;99.90
45837;DHT22;31548;51.420;-0.040;2023-12-29T04:59:19;11.00;99.90
45837;DHT22;31548;51.420;-0.040;2023-12-29T05:01:47;11.00;99.90
45837;DHT22;31548;51.420;-0.040;2023-12-29T05:04:14;11.00;99.90
45837;DHT22;31548;51.420;-0.040;2023-12-29T05:06:44;11.00;99.90
45837;DHT22;31548;51.420;-0.040;2023-12-29T05:09:11;11.00;99.90
45837;DHT22;31548;51.420;-0.040;2023-12-29T05:11:39;11.00;99.90
45837;DHT22;31548;51.420;-0.040;2023-12-29T05:14:07;11.00;99.90
45837;DHT22;31548;51.420;-0.040;2023-12-29T05:16:35;11.00;99.90
45837;DHT22;31548;51.420;-0.040;2023-12-29T05:19:02;11.00;99.90
45837;DHT22;31548;51.420;-0.040;2023-12-29T05:21:30;11.00;99.90
45837;DHT22;31548;51.420;-0.040;2023-12-29T05:23:58;11.00;99.90
45837;DHT22;31548;51.420;-0.040;2023-12-29T05:26:25;11.00;99.90
45837;DHT22;31548;51.420;-0.040;2023-12-29T05:28:53;11.00;99.90
45837;DHT22;31548;51.420;-0.040;2023-12-29T05:31:20;11.00;99.90
45837;DHT22;31548;51.420;-0.040;2023-12-29T05:33:48;11.00;99.90
45837;DHT22;31548;51.420;-0.040;2023-12-29T05:36:15;11.10;99.90
45837;DHT22;31548;51.420;-0.040;2023-12-29T05:38:45;11.10;99.90
45837;DHT22;31548;51.420;-0.040;2023-12-29T05:41:14;11.10;99.90
45837;DHT22;31548;51.420;-0.040;2023-12-29T05:43:41;11.10;99.90
45837;DHT22;31548;51.420;-0.040;2023-12-29T05:46:10;11.10;99.90
45837;DHT22;31548;51.420;-0.040;2023-12-29T05:48:41;11.10;99.90
45837;DHT22;31548;51.420;-0.040;2023-12-29T05:51:09;11.10;99.90
45837;DHT22;31548;51.420;-0.040;2023-12-29T05:53:39;11.10;99.90
45837;DHT22;31548;51.420;-0.040;2023-12-29T05:56:09;11.00;99.90
45837;DHT22;31548;51.420;-0.040;2023-12-29T05:58:37;11.00;99.90
45837;DHT22;31548;51.420;-0.040;2023-12-29T06:01:04;11.00;99.90
45837;DHT22;31548;51.420;-0.040;2023-12-29T06:03:32;11.00;99.90
45837;DHT22;31548;51.420;-0.040;2023-12-29T06:05:59;11.00;99.90
45837;DHT22;31548;51.420;-0.040;2023-12-29T06:08:27;10.90;99.90
45837;DHT22;31548;51.420;-0.040;2023-12-29T06:10:54;10.90;99.90
45837;DHT22;31548;51.420;-0.040;2023-12-29T06:13:22;10.80;99.90
45837;DHT22;31548;51.420;-0.040;2023-12-29T06:15:50;10.80;99.90
45837;DHT22;31548;51.420;-0.040;2023-12-29T06:18:17;10.70;99.90
45837;DHT22;31548;51.420;-0.040;2023-12-29T06:20:45;10.70;99.90
45837;DHT22;31548;51.420;-0.040;2023-12-29T06:23:13;10.60;99.90
45837;DHT22;31548;51.420;-0.040;2023-12-29T06:25:40;10.60;99.90
45837;DHT22;31548;51.420;-0.040;2023-12-29T06:28:08;10.60;99.90
45837;DHT22;31548;51.420;-0.040;2023-12-29T06:30:36;10.60;99.90
45837;DHT22;31548;51.420;-0.040;2023-12-29T06:33:04;10.60;99.90
45837;DHT22;31548;51.420;-0.040;2023-12-29T06:35:31;10.60;99.90
45837;DHT22;31548;51.420;-0.040;2023-12-29T06:37:59;10.60;99.90
45837;DHT22;31548;51.420;-0.040;2023-12-29T06:40:27;10.60;99.90
45837;DHT22;31548;51.420;-0.040;2023-12-29T06:42:54;10.60;99.90
45837;DHT22;31548;51.420;-0.040;2023-12-29T06:45:22;10.60;99.90
45837;DHT22;31548;51.420;-0.040;2023-12-29T06:47:50;10.50;99.90
45837;DHT22;31548;51.420;-0.040;2023-12-29T06:50:17;10.50;99.90
45837;DHT22;31548;51.420;-0.040;2023-12-29T06:52:45;10.50;99.90
45837;DHT22;31548;51.420;-0.040;2023-12-29T06:55:12;10.50;99.90
45837;DHT22;31548;51.420;-0.040;2023-12-29T06:57:40;10.50;99.90
45837;DHT22;31548;51.420;-0.040;2023-12-29T07:00:08;10.50;99.90
45837;DHT22;31548;51.420;-0.040;2023-12-29T07:02:39;10.50;99.90
45837;DHT22;31548;51.420;-0.040;2023-12-29T07:05:09;10.50;99.90
45837;DHT22;31548;51.420;-0.040;2023-12-29T07:07:37;10.50;99.90
45837;DHT22;31548;51.420;-0.040;2023-12-29T07:10:05;10.50;99.90
45837;DHT22;31548;51.420;-0.040;2023-12-29T07:12:33;10.40;99.90
45837;DHT22;31548;51.420;-0.040;2023-12-29T07:15:01;10.50;99.90
45837;DHT22;31548;51.420;-0.040;2023-12-29T07:17:28;10.50;99.90
45837;DHT22;31548;51.420;-0.040;2023-12-29T07:19:56;10.50;99.90
45837;DHT22;31548;51.420;-0.040;2023-12-29T07:22:23;10.50;99.90
45837;DHT22;31548;51.420;-0.040;2023-12-29T07:24:51;10.50;99.90
45837;DHT22;31548;51.420;-0.040;2023-12-29T07:27:18;10.50;99.90
45837;DHT22;31548;51.420;-0.040;2023-12-29T07:29:46;10.50;99.90
45837;DHT22;31548;51.420;-0.040;2023-12-29T07:32:13;10.60;99.90
45837;DHT22;31548;51.420;-0.040;2023-12-29T07:34:40;10.60;99.90
45837;DHT22;31548;51.420;-0.040;2023-12-29T07:37:08;10.60;99.90
45837;DHT22;31548;51.420;-0.040;2023-12-29T07:39:37;10.60;99.90
45837;DHT22;31548;51.420;-0.040;2023-12-29T07:42:05;10.60;99.90
45837;DHT22;31548;51.420;-0.040;2023-12-29T07:44:33;10.70;99.90
45837;DHT22;31548;51.420;-0.040;2023-12-29T07:47:00;10.60;99.90
45837;DHT22;31548;51.420;-0.040;2023-12-29T07:49:28;10.60;99.90
45837;DHT22;31548;51.420;-0.040;2023-12-29T07:51:56;10.60;99.90
45837;DHT22;31548;51.420;-0.040;2023-12-29T07:54:26;10.60;99.90
45837;DHT22;31548;51.420;-0.040;2023-12-29T07:56:54;10.60;99.90
45837;DHT22;31548;51.420;-0.040;2023-12-29T07:59:22;10.60;99.90
45837;DHT22;31548;51.420;-0.040;2023-12-29T08:01:49;10.60;99.90
45837;DHT22;31548;51.420;-0.040;2023-12-29T08:04:17;10.50;99.90
45837;DHT22;31548;51.420;-0.040;2023-12-29T08:06:44;10.50;99.90
45837;DHT22;31548;51.420;-0.040;2023-12-29T08:09:12;10.50;99.90
45837;DHT22;31548;51.420;-0.040;2023-12-29T08:11:40;10.50;99.90
45837;DHT22;31548;51.420;-0.040;2023-12-29T08:14:10;10.40;99.90
45837;DHT22;31548;51.420;-0.040;2023-12-29T08:16:39;10.40;99.90
45837;DHT22;31548;51.420;-0.040;2023-12-29T08:19:08;10.30;99.90
45837;DHT22;31548;51.420;-0.040;2023-12-29T08:21:37;10.30;99.90
45837;DHT22;31548;51.420;-0.040;2023-12-29T08:24:05;10.30;99.90
45837;DHT22;31548;51.420;-0.040;2023-12-29T08:26:33;10.20;99.90
45837;DHT22;31548;51.420;-0.040;2023-12-29T08:29:01;10.20;99.90
45837;DHT22;31548;51.420;-0.040;2023-12-29T08:31:28;10.20;99.90
45837;DHT22;31548;51.420;-0.040;2023-12-29T08:33:57;10.20;99.90
45837;DHT22;31548;51.420;-0.040;2023-12-29T08:36:24;10.20;99.90
45837;DHT22;31548;51.420;-0.040;2023-12-29T08:38:52;10.20;99.90
45837;DHT22;31548;51.420;-0.040;2023-12-29T08:41:20;10.20;99.90
45837;DHT22;31548;51.420;-0.040;2023-12-29T08:43:47;10.20;99.90
45837;DHT22;31548;51.420;-0.040;2023-12-29T08:46:15;10.20;99.90
45837;DHT22;31548;51.420;-0.040;2023-12-29T08:48:42;10.20;99.90
45837;DHT22;31548;51.420;-0.040;2023-12-29T08:51:10;10.20;99.90
45837;DHT22;31548;51.420;-0.040;2023-12-29T08:53:38;10.10;99.90
45837;DHT22;31548;51.420;-0.040;2023-12-29T08:56:06;10.10;99.90
45837;DHT22;31548;51.420;-0.040;2023-12-29T08:58:34;10.20;99.90
45837;DHT22;31548;51.420;-0.040;2023-12-29T09:01:01;10.10;99.90
45837;DHT22;31548;51.420;-0.040;2023-12-29T09:03:29;10.10;99.90
45837;DHT22;31548;51.420;-0.040;2023-12-29T09:05:57;10.10;99.90
45837;DHT22;31548;51.420;-0.040;2023-12-29T09:08:26;10.10;99.90
45837;DHT22;31548;51.420;-0.040;2023-12-29T09:10:55;10.10;99.90
45837;DHT22;31548;51.420;-0.040;2023-12-29T09:13:22;10.20;99.90
45837;DHT22;31548;51.420;-0.040;2023-12-29T09:15:56;10.20;99.90
45837;DHT22;31548;51.420;-0.040;2023-12-29T09:18:25;10.20;99.90
45837;DHT22;31548;51.420;-0.040;2023-12-29T09:20:52;10.30;99.90
45837;DHT22;31548;51.420;-0.040;2023-12-29T09:23:20;10.30;99.90
45837;DHT22;31548;51.420;-0.040;2023-12-29T09:25:47;10.30;99.90
45837;DHT22;31548;51.420;-0.040;2023-12-29T09:28:15;10.30;99.90
45837;DHT22;31548;51.420;-0.040;2023-12-29T09:30:43;10.40;99.90
45837;DHT22;31548;51.420;-0.040;2023-12-29T09:33:10;10.40;99.90
45837;DHT22;31548;51.420;-0.040;2023-12-29T09:35:40;10.40;99.90
45837;DHT22;31548;51.420;-0.040;2023-12-29T09:38:07;10.50;99.90
45837;DHT22;31548;51.420;-0.040;2023-12-29T09:40:36;10.50;99.90
45837;DHT22;31548;51.420;-0.040;2023-12-29T09:43:04;10.50;99.90
45837;DHT22;31548;51.420;-0.040;2023-12-29T09:45:33;10.50;99.90
45837;DHT22;31548;51.420;-0.040;2023-12-29T09:48:03;10.50;99.90
45837;DHT22;31548;51.420;-0.040;2023-12-29T09:50:32;10.60;99.90
45837;DHT22;31548;51.420;-0.040;2023-12-29T09:53:02;10.60;99.90
45837;DHT22;31548;51.420;-0.040;2023-12-29T09:55:32;10.60;99.90
45837;DHT22;31548;51.420;-0.040;2023-12-29T09:58:01;10.70;99.90
45837;DHT22;31548;51.420;-0.040;2023-12-29T10:00:30;10.70;99.90
45837;DHT22;31548;51.420;-0.040;2023-12-29T10:02:58;10.80;99.90
45837;DHT22;31548;51.420;-0.040;2023-12-29T10:05:25;10.80;99.90
45837;DHT22;31548;51.420;-0.040;2023-12-29T10:07:53;10.90;99.90
45837;DHT22;31548;51.420;-0.040;2023-12-29T10:10:22;10.80;99.90
45837;DHT22;31548;51.420;-0.040;2023-12-29T10:12:52;10.90;99.90
45837;DHT22;31548;51.420;-0.040;2023-12-29T10:15:49;10.90;99.90
45837;DHT22;31548;51.420;-0.040;2023-12-29T10:18:28;10.90;99.90
45837;DHT22;31548;51.420;-0.040;2023-12-29T10:21:23;11.00;99.90
45837;DHT22;31548;51.420;-0.040;2023-12-29T10:24:03;11.00;99.90
45837;DHT22;31548;51.420;-0.040;2023-12-29T10:26:35;11.00;99.90
45837;DHT22;31548;51.420;-0.040;2023-12-29T10:29:03;11.00;99.90
45837;DHT22;31548;51.420;-0.040;2023-12-29T10:31:31;11.00;99.90
45837;DHT22;31548;51.420;-0.040;2023-12-29T10:34:23;11.00;99.90
45837;DHT22;31548;51.420;-0.040;2023-12-29T10:36:59;11.10;99.90
45837;DHT22;31548;51.420;-0.040;2023-12-29T10:39:30;11.10;99.90
45837;DHT22;31548;51.420;-0.040;2023-12-29T10:42:05;11.10;99.90
45837;DHT22;31548;51.420;-0.040;2023-12-29T10:44:38;11.10;99.90
45837;DHT22;31548;51.420;-0.040;2023-12-29T10:47:10;11.10;99.90
45837;DHT22;31548;51.420;-0.040;2023-12-29T10:49:41;11.10;99.90
45837;DHT22;31548;51.420;-0.040;2023-12-29T10:52:15;11.20;99.90
45837;DHT22;31548;51.420;-0.040;2023-12-29T10:54:43;11.10;99.90
45837;DHT22;31548;51.420;-0.040;2023-12-29T10:57:12;11.20;99.90
45837;DHT22;31548;51.420;-0.040;2023-12-29T10:59:40;11.20;99.90
45837;DHT22;31548;51.420;-0.040;2023-12-29T11:02:11;11.20;99.90
45837;DHT22;31548;51.420;-0.040;2023-12-29T11:04:42;11.30;99.90
45837;DHT22;31548;51.420;-0.040;2023-12-29T11:07:12;11.30;99.90
45837;DHT22;31548;51.420;-0.040;2023-12-29T11:09:40;11.30;99.90
45837;DHT22;31548;51.420;-0.040;2023-12-29T11:12:09;11.30;99.90
45837;DHT22;31548;51.420;-0.040;2023-12-29T11:14:37;11.40;99.90
45837;DHT22;31548;51.420;-0.040;2023-12-29T11:17:05;11.40;99.90
45837;DHT22;31548;51.420;-0.040;2023-12-29T11:19:34;11.40;99.90
45837;DHT22;31548;51.420;-0.040;2023-12-29T11:22:02;11.40;99.90
45837;DHT22;31548;51.420;-0.040;2023-12-29T11:24:31;11.50;99.90
45837;DHT22;31548;51.420;-0.040;2023-12-29T11:27:07;11.50;99.90
45837;DHT22;31548;51.420;-0.040;2023-12-29T11:29:35;11.40;99.90
45837;DHT22;31548;51.420;-0.040;2023-12-29T11:32:10;11.50;99.90
45837;DHT22;31548;51.420;-0.040;2023-12-29T11:34:47;11.40;99.90
45837;DHT22;31548;51.420;-0.040;2023-12-29T11:42:49;11.60;99.90
45837;DHT22;31548;51.420;-0.040;2023-12-29T11:45:29;11.60;99.90
45837;DHT22;31548;51.420;-0.040;2023-12-29T11:47:56;11.70;99.90
45837;DHT22;31548;51.420;-0.040;2023-12-29T11:50:34;11.70;99.90
45837;DHT22;31548;51.420;-0.040;2023-12-29T11:53:04;11.70;99.90
45837;DHT22;31548;51.420;-0.040;2023-12-29T11:55:37;11.70;99.90
45837;DHT22;31548;51.420;-0.040;2023-12-29T11:58:26;11.60;99.90
45837;DHT22;31548;51.420;-0.040;2023-12-29T12:00:57;11.70;99.90
45837;DHT22;31548;51.420;-0.040;2023-12-29T12:03:26;11.60;99.90
45837;DHT22;31548;51.420;-0.040;2023-12-29T12:05:55;11.60;99.90
45837;DHT22;31548;51.420;-0.040;2023-12-29T12:08:32;11.70;99.90
45837;DHT22;31548;51.420;-0.040;2023-12-29T12:14:04;11.70;99.90
45837;DHT22;31548;51.420;-0.040;2023-12-29T12:19:14;11.80;99.90
45837;DHT22;31548;51.420;-0.040;2023-12-29T12:21:48;11.80;99.90
45837;DHT22;31548;51.420;-0.040;2023-12-29T12:24:18;11.90;99.90
45837;DHT22;31548;51.420;-0.040;2023-12-29T12:26:47;11.90;99.90
45837;DHT22;31548;51.420;-0.040;2023-12-29T12:29:14;11.90;99.90
45837;DHT22;31548;51.420;-0.040;2023-12-29T12:31:53;12.00;99.90
45837;DHT22;31548;51.420;-0.040;2023-12-29T12:34:21;12.10;99.90
45837;DHT22;31548;51.420;-0.040;2023-12-29T12:36:51;12.00;99.90
45837;DHT22;31548;51.420;-0.040;2023-12-29T12:39:19;12.00;99.90
45837;DHT22;31548;51.420;-0.040;2023-12-29T12:41:46;12.00;99.90
45837;DHT22;31548;51.420;-0.040;2023-12-29T12:44:14;12.00;99.90
45837;DHT22;31548;51.420;-0.040;2023-12-29T12:46:51;12.00;99.90
45837;DHT22;31548;51.420;-0.040;2023-12-29T12:49:22;12.00;99.90
45837;DHT22;31548;51.420;-0.040;2023-12-29T12:51:50;12.10;99.90
45837;DHT22;31548;51.420;-0.040;2023-12-29T12:54:18;12.10;99.90
45837;DHT22;31548;51.420;-0.040;2023-12-29T12:56:47;12.00;99.90
45837;DHT22;31548;51.420;-0.040;2023-12-29T12:59:15;12.00;99.90
45837;DHT22;31548;51.420;-0.040;2023-12-29T13:01:43;12.00;99.90
45837;DHT22;31548;51.420;-0.040;2023-12-29T13:04:13;12.00;99.90
45837;DHT22;31548;51.420;-0.040;2023-12-29T13:06:43;11.90;99.90
45837;DHT22;31548;51.420;-0.040;2023-12-29T13:09:17;12.00;99.90
45837;DHT22;31548;51.420;-0.040;2023-12-29T13:11:47;12.00;99.90
45837;DHT22;31548;51.420;-0.040;2023-12-29T13:14:23;11.90;99.90
45837;DHT22;31548;51.420;-0.040;2023-12-29T13:16:53;11.90;99.90
45837;DHT22;31548;51.420;-0.040;2023-12-29T13:19:24;11.80;99.90
45837;DHT22;31548;51.420;-0.040;2023-12-29T13:21:54;11.80;99.90
45837;DHT22;31548;51.420;-0.040;2023-12-29T13:24:24;11.80;99.90
45837;DHT22;31548;51.420;-0.040;2023-12-29T13:27:02;11.80;99.90
45837;DHT22;31548;51.420;-0.040;2023-12-29T13:29:30;11.80;99.90
45837;DHT22;31548;51.420;-0.040;2023-12-29T13:34:40;11.90;99.90
45837;DHT22;31548;51.420;-0.040;2023-12-29T13:37:23;11.90;99.90
45837;DHT22;31548;51.420;-0.040;2023-12-29T13:39:57;11.90;99.90
45837;DHT22;31548;51.420;-0.040;2023-12-29T13:42:28;11.90;99.90
45837;DHT22;31548;51.420;-0.040;2023-12-29T13:44:59;11.80;99.90
45837;DHT22;31548;51.420;-0.040;2023-12-29T13:47:27;11.70;99.90
45837;DHT22;31548;51.420;-0.040;2023-12-29T13:49:55;11.70;99.90
45837;DHT22;31548;51.420;-0.040;2023-12-29T13:52:23;11.60;99.90
45837;DHT22;31548;51.420;-0.040;2023-12-29T13:54:51;11.60;99.90
45837;DHT22;31548;51.420;-0.040;2023-12-29T13:57:31;11.60;99.90
45837;DHT22;31548;51.420;-0.040;2023-12-29T14:00:20;11.60;99.90
45837;DHT22;31548;51.420;-0.040;2023-12-29T14:05:39;11.60;99.90
45837;DHT22;31548;51.420;-0.040;2023-12-29T14:08:27;11.60;99.90
45837;DHT22;31548;51.420;-0.040;2023-12-29T14:10:58;11.60;99.90
45837;DHT22;31548;51.420;-0.040;2023-12-29T14:13:26;11.60;99.90
45837;DHT22;31548;51.420;-0.040;2023-12-29T14:15:58;11.60;99.90
45837;DHT22;31548;51.420;-0.040;2023-12-29T14:19:08;11.60;99.90
45837;DHT22;31548;51.420;-0.040;2023-12-29T14:21:33;11.60;99.90
45837;DHT22;31548;51.420;-0.040;2023-12-29T14:24:14;11.60;99.90
45837;DHT22;31548;51.420;-0.040;2023-12-29T14:27:03;11.50;99.90
45837;DHT22;31548;51.420;-0.040;2023-12-29T14:29:40;11.50;99.90
45837;DHT22;31548;51.420;-0.040;2023-12-29T14:32:09;11.40;99.90
45837;DHT22;31548;51.420;-0.040;2023-12-29T14:34:37;11.20;99.90
45837;DHT22;31548;51.420;-0.040;2023-12-29T14:37:04;11.20;99.90
45837;DHT22;31548;51.420;-0.040;2023-12-29T14:39:32;11.10;99.90
45837;DHT22;31548;51.420;-0.040;2023-12-29T14:41:59;11.10;99.90
45837;DHT22;31548;51.420;-0.040;2023-12-29T14:44:27;11.00;99.90
45837;DHT22;31548;51.420;-0.040;2023-12-29T14:46:55;10.90;99.90
45837;DHT22;31548;51.420;-0.040;2023-12-29T14:49:22;11.00;99.90
45837;DHT22;31548;51.420;-0.040;2023-12-29T14:51:50;10.90;99.90
45837;DHT22;31548;51.420;-0.040;2023-12-29T14:54:17;10.90;99.90
45837;DHT22;31548;51.420;-0.040;2023-12-29T14:56:45;10.90;99.90
45837;DHT22;31548;51.420;-0.040;2023-12-29T14:59:12;10.90;99.90
45837;DHT22;31548;51.420;-0.040;2023-12-29T15:01:41;10.90;99.90
45837;DHT22;31548;51.420;-0.040;2023-12-29T15:04:08;10.90;99.90
45837;DHT22;31548;51.420;-0.040;2023-12-29T15:06:38;11.00;99.90
45837;DHT22;31548;51.420;-0.040;2023-12-29T15:09:06;11.00;99.90
45837;DHT22;31548;51.420;-0.040;2023-12-29T15:11:34;11.10;99.90
45837;DHT22;31548;51.420;-0.040;2023-12-29T15:14:03;11.10;99.90
45837;DHT22;31548;51.420;-0.040;2023-12-29T15:16:31;11.10;99.90
45837;DHT22;31548;51.420;-0.040;2023-12-29T15:18:58;11.10;99.90
45837;DHT22;31548;51.420;-0.040;2023-12-29T15:21:26;11.10;99.90
45837;DHT22;31548;51.420;-0.040;2023-12-29T15:23:53;11.00;99.90
45837;DHT22;31548;51.420;-0.040;2023-12-29T15:26:21;11.00;99.90
45837;DHT22;31548;51.420;-0.040;2023-12-29T15:28:49;11.00;99.90
45837;DHT22;31548;51.420;-0.040;2023-12-29T15:31:17;11.00;99.90
45837;DHT22;31548;51.420;-0.040;2023-12-29T15:33:45;11.00;99.90
45837;DHT22;31548;51.420;-0.040;2023-12-29T15:36:13;11.00;99.90
45837;DHT22;31548;51.420;-0.040;2023-12-29T15:38:43;10.90;99.90
45837;DHT22;31548;51.420;-0.040;2023-12-29T15:41:10;10.90;99.90
45837;DHT22;31548;51.420;-0.040;2023-12-29T15:43:38;10.90;99.90
45837;DHT22;31548;51.420;-0.040;2023-12-29T15:46:18;10.90;99.90